createdAt,value
2022-10-26T00:00:28.316Z,87.70
2022-10-26T00:01:07.903Z,87.70
2022-10-26T00:01:43.864Z,87.70
2022-10-26T00:02:23.191Z,87.70
2022-10-26T00:02:57.675Z,87.80
2022-10-26T00:03:34.280Z,88.00
2022-10-26T00:04:09.588Z,88.10
2022-10-26T00:04:44.519Z,88.10
2022-10-26T00:05:20.980Z,88.10
2022-10-26T00:05:55.768Z,88.20
2022-10-26T00:06:32.076Z,88.10
2022-10-26T00:07:07.382Z,88.10
2022-10-26T00:07:42.230Z,88.10
2022-10-26T00:08:18.501Z,88.10
2022-10-26T00:08:53.392Z,88.10
2022-10-26T00:09:27.854Z,88.00
2022-10-26T00:10:03.971Z,88.00
2022-10-26T00:10:40.095Z,88.20
2022-10-26T00:11:15.721Z,88.10
2022-10-26T00:11:50.421Z,88.00
2022-10-26T00:12:24.960Z,87.80
2022-10-26T00:12:58.990Z,87.60
2022-10-26T00:13:34.837Z,87.50
2022-10-26T00:14:09.072Z,87.50
2022-10-26T00:14:44.068Z,87.30
2022-10-26T00:15:20.634Z,87.30
2022-10-26T00:15:54.962Z,87.30
2022-10-26T00:16:30.050Z,87.30
2022-10-26T00:17:05.720Z,87.30
2022-10-26T00:17:42.510Z,87.30
2022-10-26T00:18:17.271Z,87.50
2022-10-26T00:18:53.840Z,87.50
2022-10-26T00:19:28.499Z,88.10
2022-10-26T00:20:03.082Z,87.70
2022-10-26T00:20:39.047Z,87.80
2022-10-26T00:21:14.507Z,87.80
2022-10-26T00:21:49.935Z,87.70
2022-10-26T00:22:24.239Z,87.80
2022-10-26T00:22:59.799Z,87.80
2022-10-26T00:23:35.864Z,87.80
2022-10-26T00:24:11.437Z,87.80
2022-10-26T00:24:48.634Z,87.70
2022-10-26T00:25:23.451Z,87.50
2022-10-26T00:25:58.760Z,87.50
2022-10-26T00:26:34.658Z,87.60
2022-10-26T00:27:09.105Z,87.30
2022-10-26T00:27:43.018Z,87.10
2022-10-26T00:28:19.588Z,87.00
2022-10-26T00:28:55.315Z,87.00
2022-10-26T00:29:30.482Z,87.10
2022-10-26T00:30:05.374Z,87.20
2022-10-26T00:30:40.711Z,87.30
2022-10-26T00:31:18.382Z,87.20
2022-10-26T00:31:53.005Z,87.30
2022-10-26T00:32:27.305Z,87.20
2022-10-26T00:33:04.653Z,87.20
2022-10-26T00:33:40.076Z,87.80
2022-10-26T00:34:15.004Z,87.50
2022-10-26T00:34:50.555Z,87.70
2022-10-26T00:35:41.379Z,87.90
2022-10-26T00:36:22.199Z,88.00
2022-10-26T00:36:57.345Z,88.10
2022-10-26T00:37:31.275Z,88.10
2022-10-26T00:38:07.711Z,88.10
2022-10-26T00:38:46.499Z,88.00
2022-10-26T00:39:22.143Z,87.90
2022-10-26T00:39:57.015Z,87.80
2022-10-26T00:40:30.938Z,87.70
2022-10-26T00:41:06.023Z,87.60
2022-10-26T00:41:42.531Z,87.70
2022-10-26T00:42:19.525Z,87.70
2022-10-26T00:42:54.612Z,87.60
2022-10-26T00:43:38.531Z,87.60
2022-10-26T00:44:58.405Z,87.50
2022-10-26T00:45:35.255Z,87.30
2022-10-26T00:46:16.092Z,87.40
2022-10-26T00:46:54.718Z,87.40
2022-10-26T00:47:36.125Z,87.30
2022-10-26T00:48:21.024Z,87.50
2022-10-26T00:49:03.342Z,87.70
2022-10-26T00:49:38.504Z,87.90
2022-10-26T00:50:16.797Z,88.10
2022-10-26T00:50:54.862Z,88.10
2022-10-26T00:51:33.603Z,88.00
2022-10-26T00:52:10.210Z,88.10
2022-10-26T00:52:46.277Z,88.20
2022-10-26T00:53:21.986Z,88.10
2022-10-26T00:53:57.509Z,88.10
2022-10-26T00:54:34.227Z,87.90
2022-10-26T00:55:10.043Z,87.90
2022-10-26T00:55:47.797Z,87.90
2022-10-26T00:56:22.947Z,87.90
2022-10-26T00:56:57.486Z,88.00
2022-10-26T00:57:33.194Z,88.00
2022-10-26T00:58:10.535Z,87.90
2022-10-26T00:58:46.043Z,87.90
2022-10-26T00:59:19.891Z,87.80
2022-10-26T00:59:59.578Z,87.80
2022-10-26T01:00:34.951Z,87.90
2022-10-26T01:01:16.159Z,87.90
2022-10-26T01:01:57.249Z,87.80
2022-10-26T01:02:39.496Z,87.80
2022-10-26T01:03:17.733Z,87.80
2022-10-26T01:03:51.866Z,87.80
2022-10-26T01:04:27.773Z,87.90
2022-10-26T01:05:05.854Z,87.90
2022-10-26T01:05:43.835Z,88.00
2022-10-26T01:06:19.347Z,88.00
2022-10-26T01:06:54.650Z,88.10
2022-10-26T01:07:29.966Z,88.10
2022-10-26T01:08:05.697Z,88.10
2022-10-26T01:08:41.042Z,88.20
2022-10-26T01:09:15.848Z,88.30
2022-10-26T01:09:51.161Z,88.40
2022-10-26T01:10:25.995Z,88.40
2022-10-26T01:11:01.213Z,88.60
2022-10-26T01:11:37.899Z,88.80
2022-10-26T01:12:12.810Z,89.00
2022-10-26T01:12:48.073Z,89.20
2022-10-26T01:13:24.493Z,89.30
2022-10-26T01:14:01.177Z,89.30
2022-10-26T01:14:36.829Z,89.30
2022-10-26T01:15:13.654Z,89.10
2022-10-26T01:15:56.226Z,89.50
2022-10-26T01:16:52.067Z,88.80
2022-10-26T01:17:46.388Z,88.70
2022-10-26T01:18:30.987Z,88.70
2022-10-26T01:19:29.101Z,88.70
2022-10-26T01:20:26.522Z,88.70
2022-10-26T01:21:26.741Z,88.70
2022-10-26T01:22:04.764Z,88.70
2022-10-26T01:22:45.724Z,88.80
2022-10-26T01:23:26.830Z,88.80
2022-10-26T01:24:24.183Z,88.80
2022-10-26T01:25:11.865Z,88.90
2022-10-26T01:26:28.484Z,89.10
2022-10-26T01:27:14.778Z,89.40
2022-10-26T01:27:52.373Z,89.40
2022-10-26T01:28:37.149Z,89.50
2022-10-26T01:30:01.381Z,89.60
2022-10-26T01:30:40.846Z,89.80
2022-10-26T01:31:23.840Z,90.10
2022-10-26T01:32:39.074Z,89.60
2022-10-26T01:33:34.839Z,90.00
2022-10-26T01:34:15.628Z,90.10
2022-10-26T01:34:54.688Z,90.10
2022-10-26T01:35:34.507Z,90.20
2022-10-26T01:36:12.820Z,90.10
2022-10-26T01:36:54.087Z,90.20
2022-10-26T01:37:40.546Z,90.20
2022-10-26T01:38:23.532Z,90.20
2022-10-26T01:39:04.054Z,90.30
2022-10-26T01:39:43.155Z,90.30
2022-10-26T01:40:22.871Z,90.30
2022-10-26T01:41:06.461Z,90.40
2022-10-26T01:41:48.338Z,90.60
2022-10-26T01:42:25.111Z,90.50
2022-10-26T01:43:04.569Z,90.50
2022-10-26T01:43:42.744Z,90.60
2022-10-26T01:44:25.492Z,90.70
2022-10-26T01:45:06.163Z,90.70
2022-10-26T01:45:46.153Z,90.70
2022-10-26T01:46:23.580Z,90.60
2022-10-26T01:47:00.658Z,90.60
2022-10-26T01:47:37.926Z,90.60
2022-10-26T01:48:18.902Z,90.60
2022-10-26T01:48:57.425Z,90.60
2022-10-26T01:49:36.826Z,90.60
2022-10-26T01:50:13.523Z,90.60
2022-10-26T01:50:51.401Z,90.50
2022-10-26T01:51:26.104Z,90.60
2022-10-26T01:52:01.192Z,90.70
2022-10-26T01:52:35.636Z,90.80
2022-10-26T01:53:14.607Z,90.80
2022-10-26T01:53:49.807Z,90.90
2022-10-26T01:54:23.601Z,91.00
2022-10-26T01:55:03.780Z,91.00
2022-10-26T01:55:47.566Z,91.10
2022-10-26T01:56:27.833Z,91.10
2022-10-26T01:57:05.027Z,91.00
2022-10-26T01:57:40.370Z,90.90
2022-10-26T01:58:33.125Z,90.90
2022-10-26T01:59:27.945Z,91.00
2022-10-26T02:00:09.351Z,91.10
2022-10-26T02:00:59.992Z,91.10
2022-10-26T02:01:52.817Z,91.00
2022-10-26T02:02:58.874Z,90.90
2022-10-26T02:03:47.451Z,90.80
2022-10-26T02:04:34.481Z,90.80
2022-10-26T02:05:24.746Z,90.70
2022-10-26T02:06:05.108Z,90.70
2022-10-26T02:06:48.724Z,90.70
2022-10-26T02:07:32.934Z,90.70
2022-10-26T02:08:23.827Z,90.70
2022-10-26T02:09:04.706Z,90.70
2022-10-26T02:09:47.036Z,90.60
2022-10-26T02:10:33.292Z,90.60
2022-10-26T02:11:18.043Z,90.50
2022-10-26T02:11:56.202Z,90.50
2022-10-26T02:12:37.996Z,90.40
2022-10-26T02:13:17.541Z,90.40
2022-10-26T02:13:58.775Z,90.40
2022-10-26T02:14:40.090Z,90.40
2022-10-26T02:15:22.026Z,90.40
2022-10-26T02:16:06.201Z,90.50
2022-10-26T02:16:52.616Z,90.60
2022-10-26T02:17:36.199Z,90.70
2022-10-26T02:18:22.401Z,90.70
2022-10-26T02:19:03.851Z,90.60
2022-10-26T02:19:43.479Z,90.40
2022-10-26T02:20:24.370Z,90.30
2022-10-26T02:21:04.185Z,90.20
2022-10-26T02:21:42.381Z,90.10
2022-10-26T02:22:20.395Z,90.00
2022-10-26T02:22:57.685Z,89.90
2022-10-26T02:23:35.654Z,89.80
2022-10-26T02:24:14.508Z,89.60
2022-10-26T02:24:51.866Z,89.50
2022-10-26T02:25:32.143Z,89.50
2022-10-26T02:26:12.166Z,89.40
2022-10-26T02:26:49.758Z,89.40
2022-10-26T02:27:29.304Z,89.50
2022-10-26T02:28:08.595Z,89.70
2022-10-26T02:28:45.922Z,89.70
2022-10-26T02:29:23.523Z,89.60
2022-10-26T02:30:00.645Z,89.40
2022-10-26T02:30:36.792Z,89.30
2022-10-26T02:31:16.638Z,89.30
2022-10-26T02:31:51.134Z,89.40
2022-10-26T02:32:29.203Z,89.40
2022-10-26T02:33:07.890Z,89.30
2022-10-26T02:33:46.612Z,89.30
2022-10-26T02:34:24.391Z,89.40
2022-10-26T02:35:02.649Z,89.50
2022-10-26T02:35:38.977Z,89.70
2022-10-26T02:36:18.276Z,89.60
2022-10-26T02:36:54.066Z,89.60
2022-10-26T02:37:30.904Z,89.70
2022-10-26T02:38:10.281Z,89.70
2022-10-26T02:38:47.077Z,89.70
2022-10-26T02:39:22.778Z,89.70
2022-10-26T02:39:59.566Z,89.60
2022-10-26T02:40:35.289Z,89.60
2022-10-26T02:41:12.087Z,89.60
2022-10-26T02:41:50.017Z,89.60
2022-10-26T02:42:25.946Z,89.60
2022-10-26T02:43:04.823Z,89.60
2022-10-26T02:43:47.937Z,89.60
2022-10-26T02:44:26.680Z,89.60
2022-10-26T02:45:05.846Z,89.60
2022-10-26T02:45:46.441Z,89.70
2022-10-26T02:46:25.859Z,89.70
2022-10-26T02:47:01.905Z,89.60
2022-10-26T02:47:39.004Z,89.60
2022-10-26T02:48:13.539Z,89.70
2022-10-26T02:48:47.417Z,89.90
2022-10-26T02:49:23.029Z,90.00
2022-10-26T02:49:57.931Z,90.00
2022-10-26T02:50:38.842Z,90.10
2022-10-26T02:51:18.405Z,90.10
2022-10-26T02:52:00.001Z,90.20
2022-10-26T02:52:47.927Z,90.30
2022-10-26T02:53:28.673Z,90.40
2022-10-26T02:54:10.910Z,90.40
2022-10-26T02:54:53.290Z,90.40
2022-10-26T02:55:31.139Z,90.40
2022-10-26T02:56:14.505Z,90.40
2022-10-26T02:56:53.611Z,90.30
2022-10-26T02:57:33.147Z,90.40
2022-10-26T02:58:15.228Z,90.40
2022-10-26T02:58:53.860Z,90.30
2022-10-26T02:59:34.440Z,90.30
2022-10-26T03:00:13.466Z,90.30
2022-10-26T03:00:56.904Z,90.30
2022-10-26T03:01:44.415Z,90.30
2022-10-26T03:02:25.798Z,90.40
2022-10-26T03:03:05.332Z,90.50
2022-10-26T03:03:40.799Z,90.40
2022-10-26T03:04:15.290Z,90.50
2022-10-26T03:04:51.780Z,90.50
2022-10-26T03:05:29.255Z,90.50
2022-10-26T03:06:04.111Z,90.50
2022-10-26T03:06:38.991Z,90.50
2022-10-26T03:07:13.462Z,90.50
2022-10-26T03:07:48.938Z,90.50
2022-10-26T03:08:24.761Z,90.50
2022-10-26T03:09:00.844Z,90.50
2022-10-26T03:09:34.807Z,90.50
2022-10-26T03:10:12.023Z,90.50
2022-10-26T03:10:48.715Z,90.50
2022-10-26T03:11:23.579Z,90.60
2022-10-26T03:11:58.580Z,90.60
2022-10-26T03:12:34.938Z,90.70
2022-10-26T03:13:09.417Z,90.80
2022-10-26T03:13:43.238Z,90.70
2022-10-26T03:14:18.589Z,90.70
2022-10-26T03:14:54.019Z,90.70
2022-10-26T03:15:29.482Z,90.70
2022-10-26T03:16:04.997Z,90.70
2022-10-26T03:16:41.283Z,90.60
2022-10-26T03:17:17.151Z,90.60
2022-10-26T03:17:52.699Z,90.50
2022-10-26T03:18:29.100Z,90.50
2022-10-26T03:19:04.022Z,90.50
2022-10-26T03:19:38.884Z,90.50
2022-10-26T03:20:14.851Z,90.50
2022-10-26T03:20:49.165Z,90.60
2022-10-26T03:21:24.524Z,90.60
2022-10-26T03:22:00.791Z,90.70
2022-10-26T03:22:34.738Z,90.70
2022-10-26T03:23:09.603Z,90.80
2022-10-26T03:23:48.522Z,90.70
2022-10-26T03:24:23.959Z,90.70
2022-10-26T03:24:59.778Z,90.60
2022-10-26T03:25:34.563Z,90.60
2022-10-26T03:26:11.274Z,90.60
2022-10-26T03:26:45.695Z,90.60
2022-10-26T03:27:19.689Z,90.70
2022-10-26T03:28:00.693Z,90.70
2022-10-26T03:28:34.302Z,90.70
2022-10-26T03:29:09.738Z,90.70
2022-10-26T03:29:46.303Z,90.70
2022-10-26T03:30:20.134Z,90.70
2022-10-26T03:30:54.469Z,90.70
2022-10-26T03:31:30.667Z,90.70
2022-10-26T03:32:06.443Z,90.70
2022-10-26T03:32:41.910Z,90.70
2022-10-26T03:33:17.434Z,90.70
2022-10-26T03:33:51.520Z,90.70
2022-10-26T03:34:26.811Z,90.70
2022-10-26T03:35:02.643Z,90.70
2022-10-26T03:35:37.743Z,90.70
2022-10-26T03:36:13.177Z,90.70
2022-10-26T03:36:47.505Z,90.70
2022-10-26T03:37:22.350Z,90.70
2022-10-26T03:37:57.868Z,90.80
2022-10-26T03:38:32.541Z,90.80
2022-10-26T03:39:08.453Z,90.90
2022-10-26T03:39:43.839Z,90.90
2022-10-26T03:40:18.710Z,91.00
2022-10-26T03:40:54.325Z,91.10
2022-10-26T03:41:28.662Z,91.10
2022-10-26T03:42:02.940Z,91.20
2022-10-26T03:42:38.524Z,91.30
2022-10-26T03:43:14.079Z,91.30
2022-10-26T03:43:49.575Z,91.30
2022-10-26T03:44:26.220Z,91.20
2022-10-26T03:45:01.005Z,91.10
2022-10-26T03:45:38.279Z,91.10
2022-10-26T03:46:14.032Z,91.10
2022-10-26T03:46:48.359Z,91.20
2022-10-26T03:47:25.353Z,91.20
2022-10-26T03:48:02.042Z,91.30
2022-10-26T03:48:36.751Z,91.30
2022-10-26T03:49:11.193Z,91.20
2022-10-26T03:49:47.753Z,91.20
2022-10-26T03:50:24.481Z,91.30
2022-10-26T03:50:59.973Z,91.20
2022-10-26T03:51:36.253Z,91.10
2022-10-26T03:52:10.531Z,91.00
2022-10-26T03:52:44.493Z,91.00
2022-10-26T03:53:20.442Z,91.00
2022-10-26T03:53:55.362Z,91.00
2022-10-26T03:54:30.823Z,91.10
2022-10-26T03:55:08.186Z,91.10
2022-10-26T03:55:45.688Z,91.10
2022-10-26T03:56:20.899Z,91.20
2022-10-26T03:56:55.457Z,90.90
2022-10-26T03:57:30.761Z,90.90
2022-10-26T03:58:06.661Z,90.80
2022-10-26T03:58:40.992Z,90.70
2022-10-26T03:59:15.785Z,90.70
2022-10-26T03:59:51.418Z,90.60
2022-10-26T04:00:25.964Z,90.60
2022-10-26T04:01:04.486Z,90.60
2022-10-26T04:01:45.546Z,90.60
2022-10-26T04:02:25.250Z,90.50
2022-10-26T04:03:02.793Z,90.50
2022-10-26T04:03:37.448Z,90.50
2022-10-26T04:04:11.760Z,90.50
2022-10-26T04:04:47.624Z,90.50
2022-10-26T04:05:21.534Z,90.40
2022-10-26T04:05:56.334Z,90.40
2022-10-26T04:06:32.247Z,90.50
2022-10-26T04:07:06.690Z,90.50
2022-10-26T04:07:39.998Z,90.60
2022-10-26T04:08:15.355Z,90.60
2022-10-26T04:08:50.247Z,90.70
2022-10-26T04:09:24.708Z,90.70
2022-10-26T04:10:00.382Z,90.70
2022-10-26T04:10:34.991Z,90.70
2022-10-26T04:11:09.718Z,90.70
2022-10-26T04:11:45.689Z,90.70
2022-10-26T04:12:20.289Z,90.70
2022-10-26T04:12:55.603Z,90.80
2022-10-26T04:13:31.370Z,90.80
2022-10-26T04:14:06.552Z,90.90
2022-10-26T04:14:42.189Z,91.00
2022-10-26T04:15:17.729Z,91.00
2022-10-26T04:15:53.124Z,91.00
2022-10-26T04:16:31.113Z,91.00
2022-10-26T04:17:08.061Z,91.10
2022-10-26T04:17:45.975Z,91.20
2022-10-26T04:18:20.927Z,91.30
2022-10-26T04:18:57.464Z,91.30
2022-10-26T04:19:32.852Z,91.20
2022-10-26T04:20:09.589Z,91.20
2022-10-26T04:20:44.041Z,91.10
2022-10-26T04:21:20.892Z,91.10
2022-10-26T04:21:56.624Z,91.20
2022-10-26T04:22:31.476Z,91.10
2022-10-26T04:23:09.491Z,91.00
2022-10-26T04:23:43.712Z,91.00
2022-10-26T04:24:20.333Z,90.90
2022-10-26T04:24:55.416Z,90.90
2022-10-26T04:25:33.072Z,90.90
2022-10-26T04:26:09.501Z,91.00
2022-10-26T04:26:43.956Z,90.80
2022-10-26T04:27:18.522Z,90.80
2022-10-26T04:27:53.659Z,90.90
2022-10-26T04:28:29.035Z,91.00
2022-10-26T04:29:07.315Z,91.00
2022-10-26T04:29:41.735Z,91.00
2022-10-26T04:30:21.904Z,90.90
2022-10-26T04:30:57.300Z,90.90
2022-10-26T04:31:32.306Z,90.90
2022-10-26T04:32:09.177Z,91.00
2022-10-26T04:32:44.406Z,91.00
2022-10-26T04:33:19.801Z,91.20
2022-10-26T04:33:54.223Z,91.20
2022-10-26T04:34:29.171Z,91.30
2022-10-26T04:35:05.469Z,91.40
2022-10-26T04:35:39.573Z,91.40
2022-10-26T04:36:16.172Z,91.50
2022-10-26T04:36:50.566Z,91.50
2022-10-26T04:37:25.459Z,91.40
2022-10-26T04:38:02.590Z,91.30
2022-10-26T04:38:37.402Z,91.10
2022-10-26T04:39:12.216Z,91.00
2022-10-26T04:39:48.757Z,91.00
2022-10-26T04:40:23.459Z,91.00
2022-10-26T04:40:58.313Z,90.90
2022-10-26T04:41:34.224Z,90.90
2022-10-26T04:42:08.590Z,90.80
2022-10-26T04:42:43.841Z,90.80
2022-10-26T04:43:18.908Z,90.70
2022-10-26T04:43:52.746Z,90.70
2022-10-26T04:44:27.923Z,90.60
2022-10-26T04:45:02.964Z,90.60
2022-10-26T04:45:37.641Z,90.60
2022-10-26T04:46:16.752Z,90.60
2022-10-26T04:46:52.462Z,90.60
2022-10-26T04:47:28.552Z,90.60
2022-10-26T04:48:07.831Z,90.60
2022-10-26T04:48:43.627Z,90.60
2022-10-26T04:49:17.966Z,90.60
2022-10-26T04:49:52.274Z,90.70
2022-10-26T04:50:28.650Z,90.70
2022-10-26T04:51:03.674Z,90.70
2022-10-26T04:51:37.858Z,90.80
2022-10-26T04:52:13.774Z,90.80
2022-10-26T04:52:52.079Z,90.80
2022-10-26T04:53:28.857Z,90.80
2022-10-26T04:54:04.329Z,90.70
2022-10-26T04:54:39.564Z,90.80
2022-10-26T04:55:15.091Z,90.80
2022-10-26T04:55:53.914Z,90.90
2022-10-26T04:56:34.927Z,90.90
2022-10-26T04:57:09.889Z,90.90
2022-10-26T04:57:47.446Z,90.80
2022-10-26T04:58:23.132Z,91.00
2022-10-26T04:58:59.355Z,90.70
2022-10-26T04:59:34.267Z,90.70
2022-10-26T05:00:13.162Z,90.70
2022-10-26T05:00:50.879Z,90.70
2022-10-26T05:01:34.108Z,90.70
2022-10-26T05:02:09.412Z,90.70
2022-10-26T05:02:52.449Z,90.70
2022-10-26T05:03:29.442Z,90.70
2022-10-26T05:04:06.743Z,90.60
2022-10-26T05:04:41.667Z,90.60
2022-10-26T05:05:16.292Z,90.50
2022-10-26T05:05:52.263Z,90.50
2022-10-26T05:06:27.304Z,90.40
2022-10-26T05:07:03.114Z,90.40
2022-10-26T05:07:37.996Z,90.50
2022-10-26T05:08:14.596Z,90.50
2022-10-26T05:08:49.339Z,90.50
2022-10-26T05:09:25.663Z,90.50
2022-10-26T05:10:00.294Z,90.40
2022-10-26T05:10:36.546Z,90.40
2022-10-26T05:11:11.420Z,90.40
2022-10-26T05:11:48.574Z,90.40
2022-10-26T05:12:23.255Z,90.40
2022-10-26T05:13:00.036Z,90.40
2022-10-26T05:13:36.408Z,90.40
2022-10-26T05:14:15.616Z,90.50
2022-10-26T05:14:51.535Z,90.30
2022-10-26T05:15:28.003Z,90.30
2022-10-26T05:16:02.863Z,90.20
2022-10-26T05:16:38.606Z,90.10
2022-10-26T05:17:12.619Z,90.10
2022-10-26T05:17:48.518Z,90.10
2022-10-26T05:18:25.814Z,90.10
2022-10-26T05:19:02.937Z,90.00
2022-10-26T05:19:37.620Z,90.10
2022-10-26T05:20:15.201Z,90.40
2022-10-26T05:20:53.042Z,90.30
2022-10-26T05:21:29.489Z,90.40
2022-10-26T05:22:04.942Z,90.50
2022-10-26T05:22:40.287Z,90.60
2022-10-26T05:23:19.183Z,90.50
2022-10-26T05:23:55.985Z,90.50
2022-10-26T05:24:30.307Z,90.50
2022-10-26T05:25:06.617Z,90.50
2022-10-26T05:25:40.421Z,90.40
2022-10-26T05:26:16.219Z,90.30
2022-10-26T05:26:50.029Z,90.20
2022-10-26T05:27:25.646Z,90.10
2022-10-26T05:28:00.408Z,90.10
2022-10-26T05:28:37.058Z,90.10
2022-10-26T05:29:11.661Z,90.10
2022-10-26T05:29:45.463Z,90.10
2022-10-26T05:30:20.588Z,90.10
2022-10-26T05:30:55.427Z,90.10
2022-10-26T05:31:33.191Z,90.10
2022-10-26T05:32:08.226Z,90.10
2022-10-26T05:32:42.565Z,90.00
2022-10-26T05:33:17.960Z,89.70
2022-10-26T05:33:52.456Z,89.70
2022-10-26T05:34:29.646Z,89.70
2022-10-26T05:35:05.986Z,89.90
2022-10-26T05:35:40.899Z,90.00
2022-10-26T05:36:18.350Z,90.00
2022-10-26T05:36:55.705Z,89.70
2022-10-26T05:37:30.922Z,89.50
2022-10-26T05:38:08.546Z,89.40
2022-10-26T05:38:44.951Z,89.20
2022-10-26T05:39:19.906Z,88.90
2022-10-26T05:39:55.428Z,88.60
2022-10-26T05:40:31.307Z,88.30
2022-10-26T05:41:06.298Z,88.00
2022-10-26T05:41:43.827Z,87.90
2022-10-26T05:42:19.009Z,87.70
2022-10-26T05:42:54.130Z,87.70
2022-10-26T05:43:28.393Z,87.70
2022-10-26T05:44:04.080Z,87.80
2022-10-26T05:44:39.256Z,87.80
2022-10-26T05:45:14.414Z,87.80
2022-10-26T05:45:53.116Z,87.80
2022-10-26T05:46:30.080Z,87.80
2022-10-26T05:47:06.586Z,87.70
2022-10-26T05:47:41.967Z,87.60
2022-10-26T05:48:16.424Z,87.60
2022-10-26T05:48:51.446Z,87.50
2022-10-26T05:49:28.997Z,87.50
2022-10-26T05:50:05.403Z,87.50
2022-10-26T05:50:43.755Z,87.30
2022-10-26T05:51:18.474Z,87.40
2022-10-26T05:51:54.014Z,87.30
2022-10-26T05:52:29.534Z,87.20
2022-10-26T05:53:03.618Z,87.20
2022-10-26T05:53:39.524Z,87.30
2022-10-26T05:54:14.484Z,87.30
2022-10-26T05:54:49.870Z,87.30
2022-10-26T05:55:27.706Z,87.40
2022-10-26T05:56:06.166Z,87.40
2022-10-26T05:56:45.215Z,87.20
2022-10-26T05:57:21.407Z,87.40
2022-10-26T05:57:56.213Z,87.80
2022-10-26T05:58:33.575Z,87.80
2022-10-26T05:59:13.499Z,87.80
2022-10-26T05:59:50.474Z,87.80
2022-10-26T06:00:26.795Z,87.90
2022-10-26T06:01:18.579Z,88.10
2022-10-26T06:02:10.859Z,88.20
2022-10-26T06:03:01.231Z,87.90
2022-10-26T06:03:41.626Z,87.70
2022-10-26T06:04:29.456Z,87.30
2022-10-26T06:05:10.043Z,87.40
2022-10-26T06:05:54.704Z,87.10
2022-10-26T06:06:31.507Z,86.90
2022-10-26T06:07:12.536Z,86.80
2022-10-26T06:07:50.824Z,86.80
2022-10-26T06:08:29.571Z,86.70
2022-10-26T06:09:07.623Z,86.60
2022-10-26T06:09:43.783Z,86.50
2022-10-26T06:10:20.804Z,86.40
2022-10-26T06:11:00.085Z,86.50
2022-10-26T06:11:36.839Z,86.70
2022-10-26T06:12:19.260Z,86.50
2022-10-26T06:12:54.666Z,86.20
2022-10-26T06:13:31.992Z,86.10
2022-10-26T06:14:08.951Z,86.00
2022-10-26T06:14:46.262Z,85.90
2022-10-26T06:15:22.594Z,86.00
2022-10-26T06:16:14.784Z,86.20
2022-10-26T06:17:05.449Z,86.30
2022-10-26T06:17:54.672Z,86.60
2022-10-26T06:18:43.420Z,86.90
2022-10-26T06:19:29.163Z,87.10
2022-10-26T06:20:29.724Z,87.10
2022-10-26T06:21:19.595Z,86.90
2022-10-26T06:22:14.113Z,86.70
2022-10-26T06:23:02.717Z,86.60
2022-10-26T06:23:47.472Z,86.80
2022-10-26T06:24:31.337Z,86.90
2022-10-26T06:25:17.315Z,86.60
2022-10-26T06:25:58.600Z,86.10
2022-10-26T06:26:43.284Z,86.10
2022-10-26T06:27:28.602Z,86.10
2022-10-26T06:28:13.208Z,86.20
2022-10-26T06:28:59.704Z,86.20
2022-10-26T06:29:45.347Z,85.90
2022-10-26T06:30:24.049Z,85.60
2022-10-26T06:30:59.829Z,85.40
2022-10-26T06:31:36.228Z,85.30
2022-10-26T06:32:10.978Z,85.20
2022-10-26T06:32:47.221Z,85.00
2022-10-26T06:33:30.866Z,85.00
2022-10-26T06:34:12.399Z,85.10
2022-10-26T06:34:51.564Z,84.90
2022-10-26T06:35:34.360Z,85.00
2022-10-26T06:36:23.590Z,85.20
2022-10-26T06:37:00.963Z,85.10
2022-10-26T06:37:39.009Z,85.40
2022-10-26T06:38:17.358Z,85.50
2022-10-26T06:38:57.513Z,85.50
2022-10-26T06:39:36.561Z,85.20
2022-10-26T06:40:16.850Z,85.10
2022-10-26T06:40:52.885Z,84.70
2022-10-26T06:41:30.180Z,84.60
2022-10-26T06:42:07.085Z,84.60
2022-10-26T06:42:48.015Z,84.50
2022-10-26T06:43:25.875Z,84.50
2022-10-26T06:44:04.115Z,84.60
2022-10-26T06:45:19.617Z,83.90
2022-10-26T06:46:12.642Z,84.10
2022-10-26T06:46:52.480Z,83.20
2022-10-26T06:47:36.432Z,82.80
2022-10-26T06:48:12.244Z,82.60
2022-10-26T06:48:55.383Z,82.60
2022-10-26T06:49:35.141Z,82.40
2022-10-26T06:50:22.084Z,82.10
2022-10-26T06:51:01.000Z,82.10
2022-10-26T06:51:44.055Z,82.40
2022-10-26T06:52:31.753Z,82.70
2022-10-26T06:53:19.693Z,82.60
2022-10-26T06:54:03.471Z,82.40
2022-10-26T06:54:52.803Z,82.50
2022-10-26T06:55:28.524Z,82.40
2022-10-26T06:56:06.107Z,82.40
2022-10-26T06:56:41.023Z,82.40
2022-10-26T06:57:17.992Z,82.30
2022-10-26T06:57:56.289Z,82.50
2022-10-26T06:58:34.281Z,82.40
2022-10-26T06:59:16.894Z,82.30
2022-10-26T06:59:54.052Z,82.00
2022-10-26T07:00:34.438Z,81.90
2022-10-26T07:01:12.761Z,81.60
2022-10-26T07:01:57.222Z,81.90
2022-10-26T07:02:33.214Z,81.90
2022-10-26T07:03:11.049Z,82.10
2022-10-26T07:03:45.781Z,82.20
2022-10-26T07:04:21.906Z,82.00
2022-10-26T07:04:56.366Z,81.70
2022-10-26T07:05:32.429Z,81.30
2022-10-26T07:06:09.919Z,81.30
2022-10-26T07:06:46.885Z,81.30
2022-10-26T07:07:23.388Z,81.10
2022-10-26T07:07:58.407Z,80.80
2022-10-26T07:08:34.259Z,80.60
2022-10-26T07:09:10.679Z,80.60
2022-10-26T07:09:45.619Z,80.30
2022-10-26T07:10:20.719Z,80.10
2022-10-26T07:10:56.468Z,80.10
2022-10-26T07:11:32.957Z,80.20
2022-10-26T07:12:07.301Z,80.40
2022-10-26T07:12:43.298Z,80.60
2022-10-26T07:13:22.249Z,80.80
2022-10-26T07:13:59.362Z,80.50
2022-10-26T07:14:34.530Z,80.10
2022-10-26T07:15:12.848Z,80.60
2022-10-26T07:15:48.801Z,80.20
2022-10-26T07:16:25.354Z,80.50
2022-10-26T07:16:59.144Z,80.60
2022-10-26T07:17:36.482Z,80.60
2022-10-26T07:18:13.623Z,80.40
2022-10-26T07:18:50.155Z,80.30
2022-10-26T07:19:27.072Z,80.50
2022-10-26T07:20:04.065Z,80.70
2022-10-26T07:20:40.218Z,81.00
2022-10-26T07:21:18.362Z,81.00
2022-10-26T07:21:54.796Z,80.70
2022-10-26T07:22:30.852Z,80.20
2022-10-26T07:23:07.602Z,79.90
2022-10-26T07:23:44.066Z,79.60
2022-10-26T07:24:19.462Z,79.30
2022-10-26T07:24:57.066Z,79.10
2022-10-26T08:23:26.314Z,76.20
2022-10-26T08:24:02.010Z,76.50
2022-10-26T08:24:36.906Z,76.50
2022-10-26T08:25:20.470Z,76.60
2022-10-26T08:26:00.335Z,76.40
2022-10-26T08:26:36.138Z,76.40
2022-10-26T08:27:11.538Z,76.40
2022-10-26T08:27:49.448Z,76.40
2022-10-26T08:28:25.699Z,76.40
2022-10-26T08:29:00.583Z,76.40
2022-10-26T08:29:35.070Z,76.40
2022-10-26T08:30:13.312Z,76.30
2022-10-26T08:30:48.958Z,76.10
2022-10-26T08:31:23.759Z,76.10
2022-10-26T08:32:00.270Z,75.90
2022-10-26T08:32:35.200Z,75.40
2022-10-26T08:33:09.915Z,75.30
2022-10-26T08:33:45.089Z,75.30
2022-10-26T08:34:20.654Z,75.40
2022-10-26T08:34:54.873Z,75.50
2022-10-26T08:35:32.713Z,75.80
2022-10-26T08:36:10.381Z,75.80
2022-10-26T08:36:45.115Z,75.50
2022-10-26T08:37:20.390Z,75.30
2022-10-26T08:37:57.265Z,74.40
2022-10-26T08:38:32.215Z,73.50
2022-10-26T08:39:06.759Z,73.30
2022-10-26T08:39:43.269Z,73.20
2022-10-26T08:40:19.229Z,73.00
2022-10-26T08:40:56.677Z,73.10
2022-10-26T08:41:37.071Z,73.10
2022-10-26T08:42:26.716Z,72.80
2022-10-26T08:43:06.581Z,72.40
2022-10-26T08:43:43.861Z,71.80
2022-10-26T08:44:31.913Z,71.40
2022-10-26T08:45:16.238Z,71.10
2022-10-26T08:45:53.704Z,71.00
2022-10-26T08:46:33.156Z,70.70
2022-10-26T08:48:17.606Z,70.90
2022-10-26T08:48:56.670Z,70.40
2022-10-26T08:49:37.835Z,69.50
2022-10-26T08:50:15.641Z,69.20
2022-10-26T08:50:55.021Z,69.20
2022-10-26T08:51:36.135Z,69.10
2022-10-26T08:52:17.307Z,69.10
2022-10-26T08:53:02.904Z,69.10
2022-10-26T08:53:44.516Z,69.20
2022-10-26T08:54:27.402Z,69.30
2022-10-26T08:55:04.607Z,69.20
2022-10-26T08:55:46.199Z,68.50
2022-10-26T08:56:25.538Z,67.90
2022-10-26T08:57:03.049Z,67.70
2022-10-26T08:57:41.993Z,67.60
2022-10-26T08:58:19.351Z,67.50
2022-10-26T08:58:59.300Z,67.30
2022-10-26T08:59:43.516Z,67.50
2022-10-26T09:00:30.619Z,67.80
2022-10-26T09:01:16.702Z,67.80
2022-10-26T09:02:17.263Z,67.40
2022-10-26T09:02:54.288Z,67.30
2022-10-26T09:03:32.471Z,67.50
2022-10-26T09:04:12.678Z,67.60
2022-10-26T09:04:49.006Z,67.40
2022-10-26T09:05:32.300Z,67.20
2022-10-26T09:06:22.642Z,67.20
2022-10-26T09:07:04.524Z,67.20
2022-10-26T09:07:50.273Z,67.00
2022-10-26T09:08:40.179Z,66.80
2022-10-26T09:09:20.666Z,66.90
2022-10-26T09:10:05.653Z,66.80
2022-10-26T09:10:56.981Z,66.90
2022-10-26T09:11:50.569Z,66.90
2022-10-26T09:12:37.180Z,66.90
2022-10-26T09:13:24.648Z,67.20